Terminal Aerodrome Forecast
Issued by NWS

Home | Current Version | Previous Version | Text Only | Print | Product List | Glossary On
Versions: 1 2 3 4 5 6 7 8 9 10 11 12
000
FTAK31 PAFA 271131
TAFAGA
TAF
PAGA 271131Z 2712/2812 VRB03KT P6SM BKN060 BKN090
     FM271800 08006KT P6SM SCT050 BKN100 BKN200
     FM280200 04003KT P6SM FEW050 SCT100 SCT200=

USA.gov is the U.S. government's official web portal to all federal, state and local government web resources and services.